createdAt,value
2023-05-09T00:01:31.767Z,15.20
2023-05-09T00:04:53.778Z,15.20
2023-05-09T00:08:16.172Z,15.20
2023-05-09T00:11:39.182Z,15.10
2023-05-09T00:15:01.245Z,15.20
2023-05-09T00:18:24.097Z,15.30
2023-05-09T00:21:46.448Z,15.30
2023-05-09T00:25:10.189Z,15.40
2023-05-09T00:28:35.033Z,15.40
2023-05-09T00:31:57.080Z,15.50
2023-05-09T00:35:19.500Z,15.50
2023-05-09T00:38:41.506Z,15.60
2023-05-09T00:42:03.922Z,15.60
2023-05-09T00:45:25.969Z,15.60
2023-05-09T00:48:52.430Z,15.60
2023-05-09T00:52:14.457Z,15.60
2023-05-09T00:55:36.764Z,15.60
2023-05-09T00:58:59.542Z,15.70
2023-05-09T01:02:21.927Z,15.60
2023-05-09T01:05:58.686Z,15.60
2023-05-09T01:09:43.663Z,15.60
2023-05-09T01:13:17.300Z,15.60
2023-05-09T01:16:46.324Z,15.60
2023-05-09T01:20:11.175Z,15.60
2023-05-09T01:23:39.145Z,15.60
2023-05-09T01:27:46.183Z,15.60
2023-05-09T01:31:09.203Z,15.50
2023-05-09T01:34:34.061Z,15.50
2023-05-09T01:37:57.869Z,15.50
2023-05-09T01:41:23.341Z,15.50
2023-05-09T01:44:47.632Z,15.40
2023-05-09T01:48:10.938Z,15.40
2023-05-09T01:51:34.497Z,15.40
2023-05-09T01:54:57.840Z,15.40
2023-05-09T01:58:21.316Z,15.40
2023-05-09T02:01:44.754Z,15.40
2023-05-09T02:05:09.441Z,15.40
2023-05-09T02:08:32.852Z,15.40
2023-05-09T02:11:55.646Z,15.40
2023-05-09T02:15:17.748Z,15.40
2023-05-09T02:18:39.719Z,15.40
2023-05-09T02:22:02.840Z,15.30
2023-05-09T02:25:25.094Z,15.30
2023-05-09T02:28:47.661Z,15.30
2023-05-09T02:32:14.154Z,15.30
2023-05-09T02:35:37.393Z,15.30
2023-05-09T02:39:00.351Z,15.30
2023-05-09T02:42:26.437Z,15.20
2023-05-09T02:45:48.522Z,15.20
2023-05-09T02:49:16.761Z,15.20
2023-05-09T02:52:45.149Z,15.30
2023-05-09T02:56:07.754Z,15.20
2023-05-09T02:59:29.804Z,15.30
2023-05-09T03:02:56.061Z,15.30
2023-05-09T03:06:18.117Z,15.20
2023-05-09T03:09:41.285Z,15.20
2023-05-09T03:13:04.010Z,15.10
2023-05-09T03:16:26.171Z,15.10
2023-05-09T03:19:48.674Z,15.10
2023-05-09T03:23:10.779Z,15.10
2023-05-09T03:26:32.880Z,15.10
2023-05-09T03:29:55.478Z,15.10
2023-05-09T03:33:17.451Z,15.10
2023-05-09T03:36:39.588Z,15.20
2023-05-09T03:40:03.847Z,15.20
2023-05-09T03:43:30.275Z,15.20
2023-05-09T03:46:52.504Z,15.10
2023-05-09T03:50:14.765Z,15.10
2023-05-09T03:53:37.795Z,15.20
2023-05-09T03:57:01.550Z,15.20
2023-05-09T04:00:23.950Z,15.10
2023-05-09T04:03:58.004Z,15.10
2023-05-09T04:07:22.027Z,15.20
2023-05-09T04:10:44.605Z,15.20
2023-05-09T04:14:07.327Z,15.20
2023-05-09T04:17:31.483Z,15.20
2023-05-09T04:20:53.708Z,15.30
2023-05-09T04:24:16.422Z,15.30
2023-05-09T04:27:41.672Z,15.30
2023-05-09T04:31:03.929Z,15.30
2023-05-09T04:34:27.936Z,15.30
2023-05-09T04:37:52.095Z,15.30
2023-05-09T04:41:14.273Z,15.40
2023-05-09T04:44:36.592Z,15.40
2023-05-09T04:47:59.222Z,15.50
2023-05-09T04:51:21.403Z,15.60
2023-05-09T04:54:43.597Z,15.70
2023-05-09T04:58:06.521Z,15.80
2023-05-09T05:01:28.615Z,15.80
2023-05-09T05:04:56.004Z,15.90
2023-05-09T05:08:22.867Z,16.00
2023-05-09T05:11:57.136Z,16.10
2023-05-09T05:15:22.714Z,16.30
2023-05-09T05:18:45.643Z,16.50
2023-05-09T05:22:08.364Z,16.60
2023-05-09T05:25:33.618Z,16.80
2023-05-09T05:29:01.039Z,16.80
2023-05-09T05:32:24.020Z,17.00
2023-05-09T05:35:46.366Z,17.30
2023-05-09T05:39:09.032Z,17.30
2023-05-09T05:42:31.137Z,17.50
2023-05-09T05:45:53.975Z,17.40
2023-05-09T05:49:21.190Z,17.20
2023-05-09T05:52:46.917Z,17.00
2023-05-09T05:56:11.137Z,16.90
2023-05-09T05:59:33.585Z,16.80
2023-05-09T06:02:57.394Z,16.80
2023-05-09T06:06:29.029Z,16.90
2023-05-09T06:09:51.127Z,17.10
2023-05-09T06:13:13.171Z,17.40
2023-05-09T06:16:39.505Z,17.60
2023-05-09T06:20:01.614Z,18.00
2023-05-09T06:23:23.690Z,18.20
2023-05-09T06:26:46.099Z,18.40
2023-05-09T06:30:23.885Z,18.60
2023-05-09T06:33:47.981Z,19.30
2023-05-09T06:37:09.950Z,19.90
2023-05-09T06:40:32.031Z,20.20
2023-05-09T06:43:54.146Z,20.10
2023-05-09T06:47:16.368Z,20.50
2023-05-09T06:50:38.483Z,20.40
2023-05-09T06:54:00.433Z,21.20
2023-05-09T06:57:22.498Z,22.40
2023-05-09T07:00:44.436Z,22.80
2023-05-09T07:04:06.417Z,22.20
2023-05-09T07:07:28.354Z,21.40
2023-05-09T07:10:50.568Z,20.90
2023-05-09T07:14:12.653Z,20.00
2023-05-09T07:17:34.705Z,19.70
2023-05-09T07:20:56.748Z,19.30
2023-05-09T07:24:18.682Z,19.70
2023-05-09T07:27:40.792Z,19.70
2023-05-09T07:31:03.446Z,19.80
2023-05-09T07:34:25.611Z,20.00
2023-05-09T07:37:47.964Z,20.10
2023-05-09T07:41:09.954Z,19.90
2023-05-09T07:44:32.237Z,20.00
2023-05-09T07:47:54.235Z,20.30
2023-05-09T07:51:16.219Z,20.60
2023-05-09T07:54:38.251Z,21.00
2023-05-09T07:58:00.191Z,21.80
2023-05-09T08:01:22.128Z,21.80
2023-05-09T08:04:44.177Z,22.00
2023-05-09T08:08:06.230Z,21.90
2023-05-09T08:11:28.519Z,21.90
2023-05-09T08:14:50.579Z,22.10
2023-05-09T08:18:12.650Z,21.90
2023-05-09T08:21:34.586Z,22.00
2023-05-09T08:24:56.586Z,22.30
2023-05-09T08:28:19.192Z,22.70
2023-05-09T08:31:41.241Z,23.60
2023-05-09T08:35:03.443Z,23.60
2023-05-09T08:38:25.445Z,23.40
2023-05-09T08:41:47.575Z,23.60
2023-05-09T08:45:16.820Z,23.80
2023-05-09T08:48:39.787Z,24.20
2023-05-09T08:52:02.360Z,23.80
2023-05-09T08:55:25.789Z,23.70
2023-05-09T08:58:47.821Z,23.60
2023-05-09T09:02:13.792Z,22.80
2023-05-09T09:05:41.896Z,22.60
2023-05-09T09:09:06.537Z,23.50
2023-05-09T09:12:28.929Z,24.30
2023-05-09T09:15:53.717Z,25.10
2023-05-09T09:19:18.176Z,26.20
2023-05-09T09:22:43.024Z,26.80
2023-05-09T09:26:05.055Z,26.90
2023-05-09T09:29:28.820Z,27.50
2023-05-09T09:32:50.989Z,27.60
2023-05-09T09:36:13.179Z,28.30
2023-05-09T09:39:35.256Z,28.70
2023-05-09T09:42:57.417Z,28.50
2023-05-09T09:46:19.930Z,27.60
2023-05-09T09:49:46.871Z,26.30
2023-05-09T09:53:08.846Z,26.50
2023-05-09T09:56:47.291Z,26.70
2023-05-09T10:00:10.134Z,26.10
2023-05-09T10:03:36.397Z,26.40
2023-05-09T10:07:00.661Z,27.20
2023-05-09T10:10:23.292Z,27.60
2023-05-09T10:13:45.949Z,27.40
2023-05-09T10:17:19.371Z,27.70
2023-05-09T10:20:43.716Z,27.10
2023-05-09T10:24:07.003Z,27.10
2023-05-09T10:27:32.724Z,27.00
2023-05-09T10:31:08.933Z,27.10
2023-05-09T10:34:33.548Z,26.20
2023-05-09T10:37:59.392Z,25.40
2023-05-09T10:41:24.364Z,24.80
2023-05-09T10:44:48.138Z,24.60
2023-05-09T10:48:11.262Z,25.10
2023-05-09T10:51:33.854Z,25.60
2023-05-09T10:55:04.300Z,25.40
2023-05-09T10:58:27.368Z,25.00
2023-05-09T11:02:01.702Z,25.50
2023-05-09T11:05:24.128Z,25.60
2023-05-09T11:08:47.663Z,24.90
2023-05-09T11:12:17.031Z,25.10
2023-05-09T11:16:08.675Z,25.40
2023-05-09T11:19:57.907Z,24.70
2023-05-09T11:23:21.908Z,24.30
2023-05-09T11:26:48.307Z,24.20
2023-05-09T11:30:14.293Z,24.80
2023-05-09T11:33:40.810Z,24.70
2023-05-09T11:37:14.241Z,24.60
2023-05-09T11:40:36.306Z,24.80
2023-05-09T11:44:00.401Z,25.00
2023-05-09T11:47:22.786Z,24.80
2023-05-09T11:50:48.341Z,24.60
2023-05-09T11:54:12.007Z,24.20
2023-05-09T11:57:34.499Z,24.20
2023-05-09T12:00:57.530Z,24.40
2023-05-09T12:04:19.590Z,24.70
2023-05-09T12:07:42.270Z,25.20
2023-05-09T12:11:10.865Z,25.50
2023-05-09T12:14:34.855Z,25.30
2023-05-09T12:18:08.111Z,25.20
2023-05-09T12:21:30.154Z,24.00
2023-05-09T12:24:52.185Z,23.50
2023-05-09T12:28:14.857Z,23.80
2023-05-09T12:31:37.359Z,23.90
2023-05-09T12:35:00.448Z,23.50
2023-05-09T12:38:23.485Z,24.10
2023-05-09T12:41:57.340Z,24.70
2023-05-09T12:45:23.131Z,24.50
2023-05-09T12:48:45.184Z,24.90
2023-05-09T12:52:19.203Z,25.10
2023-05-09T12:55:41.649Z,24.10
2023-05-09T12:59:03.660Z,24.00
2023-05-09T13:02:27.970Z,23.60
2023-05-09T13:06:00.992Z,23.10
2023-05-09T13:09:27.443Z,22.80
2023-05-09T13:12:51.505Z,22.60
2023-05-09T13:16:16.686Z,22.30
2023-05-09T13:19:39.571Z,22.60
2023-05-09T13:23:01.545Z,23.00
2023-05-09T13:26:23.640Z,23.10
2023-05-09T13:29:45.765Z,22.90
2023-05-09T13:33:24.023Z,22.80
2023-05-09T13:36:47.539Z,23.10
2023-05-09T13:40:11.005Z,23.20
2023-05-09T13:43:33.136Z,23.50
2023-05-09T13:46:55.126Z,23.80
2023-05-09T13:50:17.438Z,24.00
2023-05-09T13:53:39.674Z,23.50
2023-05-09T13:57:05.665Z,23.60
2023-05-09T14:00:27.632Z,24.00
2023-05-09T14:03:49.653Z,24.20
2023-05-09T14:07:13.614Z,24.00
2023-05-09T14:10:35.666Z,23.60
2023-05-09T14:13:57.755Z,23.90
2023-05-09T14:17:19.730Z,24.10
2023-05-09T14:20:42.393Z,23.80
2023-05-09T14:24:05.048Z,23.80
2023-05-09T14:27:27.432Z,23.40
2023-05-09T14:30:49.495Z,23.70
2023-05-09T14:34:11.581Z,23.50
2023-05-09T14:37:33.636Z,23.40
2023-05-09T14:40:56.614Z,23.30
2023-05-09T14:44:18.573Z,23.30
2023-05-09T14:47:41.245Z,23.40
2023-05-09T14:51:03.562Z,23.30
2023-05-09T14:54:25.716Z,23.30
2023-05-09T14:57:47.813Z,22.90
2023-05-09T15:01:10.095Z,22.90
2023-05-09T15:04:32.244Z,23.20
2023-05-09T15:07:54.293Z,23.40
2023-05-09T15:11:16.225Z,23.20
2023-05-09T15:14:39.573Z,23.30
2023-05-09T15:18:02.610Z,22.80
2023-05-09T15:21:24.539Z,22.30
2023-05-09T15:24:46.491Z,21.70
2023-05-09T15:28:08.571Z,21.40
2023-05-09T15:31:33.185Z,21.60
2023-05-09T15:34:55.228Z,21.60
2023-05-09T15:38:17.211Z,21.60
2023-05-09T15:41:39.222Z,21.70
2023-05-09T15:45:02.179Z,21.90
2023-05-09T15:48:24.876Z,21.70
2023-05-09T15:51:46.802Z,21.90
2023-05-09T15:55:09.733Z,21.70
2023-05-09T15:58:31.920Z,21.50
2023-05-09T16:01:54.863Z,21.80
2023-05-09T16:05:18.365Z,21.70
2023-05-09T16:08:40.364Z,21.70
2023-05-09T16:12:02.303Z,21.60
2023-05-09T16:15:24.333Z,21.60
2023-05-09T16:18:46.424Z,21.50
2023-05-09T16:22:08.561Z,21.50
2023-05-09T16:25:30.937Z,21.20
2023-05-09T16:28:53.784Z,21.20
2023-05-09T16:32:16.223Z,21.00
2023-05-09T16:35:38.268Z,20.80
2023-05-09T16:39:01.174Z,20.70
2023-05-09T16:42:23.188Z,20.50
2023-05-09T16:45:45.193Z,20.30
2023-05-09T16:49:07.278Z,20.20
2023-05-09T16:52:30.608Z,20.30
2023-05-09T16:55:54.095Z,20.30
2023-05-09T16:59:17.405Z,20.30
2023-05-09T17:02:39.892Z,20.20
2023-05-09T17:06:01.925Z,20.20
2023-05-09T17:09:24.489Z,20.10
2023-05-09T17:12:46.790Z,20.10
2023-05-09T17:16:08.909Z,20.10
2023-05-09T17:19:32.719Z,20.20
2023-05-09T17:22:54.786Z,20.10
2023-05-09T17:26:16.750Z,19.90
2023-05-09T17:29:38.673Z,19.90
2023-05-09T17:33:00.704Z,19.80
2023-05-09T17:36:22.803Z,19.80
2023-05-09T17:39:44.796Z,19.70
2023-05-09T17:43:06.732Z,19.60
2023-05-09T17:46:28.767Z,19.50
2023-05-09T17:49:50.790Z,19.40
2023-05-09T17:53:13.520Z,19.50
2023-05-09T17:56:35.655Z,19.40
2023-05-09T17:59:58.342Z,19.30
2023-05-09T18:03:20.395Z,19.30
2023-05-09T18:06:42.609Z,19.20
2023-05-09T18:10:05.248Z,19.10
2023-05-09T18:13:27.281Z,19.10
2023-05-09T18:16:49.329Z,19.00
2023-05-09T18:20:11.574Z,18.90
2023-05-09T18:23:33.569Z,18.90
2023-05-09T18:26:55.528Z,18.80
2023-05-09T18:30:18.941Z,18.80
2023-05-09T18:33:42.062Z,18.70
2023-05-09T18:37:04.261Z,18.70
2023-05-09T18:40:26.542Z,18.60
2023-05-09T18:43:48.858Z,18.50
2023-05-09T18:47:11.463Z,18.50
2023-05-09T18:50:38.400Z,18.40
2023-05-09T18:54:00.917Z,18.30
2023-05-09T18:57:23.956Z,18.20
2023-05-09T19:00:47.114Z,18.20
2023-05-09T19:04:09.530Z,18.10
2023-05-09T19:07:32.153Z,18.10
2023-05-09T19:10:54.784Z,18.10
2023-05-09T19:14:16.726Z,18.10
2023-05-09T19:17:41.709Z,18.00
2023-05-09T19:21:04.148Z,18.00
2023-05-09T19:24:26.123Z,18.00
2023-05-09T19:27:48.216Z,17.90
2023-05-09T19:31:10.402Z,17.80
2023-05-09T19:34:32.482Z,17.80
2023-05-09T19:37:54.464Z,17.70
2023-05-09T19:41:16.494Z,17.60
2023-05-09T19:44:39.115Z,17.50
2023-05-09T19:48:01.117Z,17.50
2023-05-09T19:51:23.163Z,17.40
2023-05-09T19:54:45.282Z,17.30
2023-05-09T19:58:07.339Z,17.10
2023-05-09T20:01:29.345Z,17.00
2023-05-09T20:04:51.529Z,16.80
2023-05-09T20:08:13.537Z,16.60
2023-05-09T20:11:35.596Z,16.30
2023-05-09T20:14:57.653Z,16.10
2023-05-09T20:18:19.605Z,15.90
2023-05-09T20:21:41.843Z,15.70
2023-05-09T20:25:04.191Z,15.60
2023-05-09T20:28:26.283Z,15.50
2023-05-09T20:31:48.338Z,15.30
2023-05-09T20:35:10.691Z,15.20
2023-05-09T20:38:32.687Z,15.10
2023-05-09T20:41:55.880Z,15.00
2023-05-09T20:45:18.042Z,14.90
2023-05-09T20:48:40.266Z,14.90
2023-05-09T20:52:02.279Z,14.80
2023-05-09T20:55:24.432Z,14.60
2023-05-09T20:58:46.463Z,14.60
2023-05-09T21:02:09.196Z,14.50
2023-05-09T21:05:31.861Z,14.40
2023-05-09T21:08:54.228Z,14.30
2023-05-09T21:12:16.580Z,14.30
2023-05-09T21:15:38.634Z,14.30
2023-05-09T21:19:02.652Z,14.20
2023-05-09T21:22:24.703Z,14.20
2023-05-09T21:25:46.778Z,14.20
2023-05-09T21:29:09.235Z,14.10
2023-05-09T21:32:31.304Z,14.10
2023-05-09T21:35:53.275Z,14.10
2023-05-09T21:39:15.388Z,14.10
2023-05-09T21:42:37.692Z,14.10
2023-05-09T21:45:59.838Z,14.10
2023-05-09T21:49:21.871Z,14.00
2023-05-09T21:52:43.840Z,14.00
2023-05-09T21:56:06.164Z,14.00
2023-05-09T21:59:28.209Z,14.00
2023-05-09T22:02:50.602Z,14.00
2023-05-09T22:06:13.530Z,14.00
2023-05-09T22:09:35.567Z,14.00
2023-05-09T22:12:57.755Z,14.00
2023-05-09T22:16:19.910Z,14.00
2023-05-09T22:19:41.899Z,13.90
2023-05-09T22:23:03.897Z,13.90
2023-05-09T22:26:26.261Z,14.00
2023-05-09T22:29:51.062Z,14.00
2023-05-09T22:33:13.049Z,14.00
2023-05-09T22:36:35.136Z,14.00
2023-05-09T22:39:57.159Z,13.90
2023-05-09T22:43:20.233Z,13.90
2023-05-09T22:46:42.321Z,13.90
2023-05-09T22:50:04.736Z,13.90
2023-05-09T22:53:26.825Z,13.90
2023-05-09T22:56:49.064Z,13.90
2023-05-09T23:00:11.889Z,13.90
2023-05-09T23:03:33.888Z,13.80
2023-05-09T23:06:56.117Z,13.90
2023-05-09T23:10:18.305Z,14.00
2023-05-09T23:13:40.702Z,13.90
2023-05-09T23:17:02.676Z,13.90
2023-05-09T23:20:25.922Z,14.00
2023-05-09T23:23:47.936Z,14.00
2023-05-09T23:27:09.973Z,14.00
2023-05-09T23:30:31.962Z,14.00
2023-05-09T23:33:54.022Z,14.10
2023-05-09T23:37:16.138Z,14.10
2023-05-09T23:40:38.614Z,14.10
2023-05-09T23:44:01.921Z,14.10
2023-05-09T23:47:24.082Z,14.10
2023-05-09T23:50:46.080Z,14.20
2023-05-09T23:54:08.380Z,14.20
2023-05-09T23:57:30.396Z,14.10
